Main page
METAR-TAF:

METAR-TAF

Airports :

Federico Fellini International Airport

Rimini, Italy

latitude: 44-02N, longitude: 012-37E, elevation: 12 m

Current weather observation

The report was made 1 hour and 36 minutes ago, at 22:15 UTC
Calm wind
Temperature 24°C
Humidity 89%
Pressure 1010 hPa
Visibility 10 km or more
no clouds below 1500 m and no cumulonimbus

METAR: LIPR 202215Z 00000KT CAVOK 24/22 Q1010

Time: 01:51 (23:51 UTC)

Forecast

The report was made 3 hours and 51 minutes ago, at 20:00 UTC
Forecast valid from 20 at 21 UTC to 21 at 06 UTC
Wind 10 kt from the Southwest
Visibility 10 km or more
Scattered clouds at a height of 3000 ft
Probability 30% :
Temporary
from 20 at 21 UTC to 21 at 06 UTC
Visibility: 5000 m
rain showers

TAF: LIPR 202000Z 2021/2106 22010KT 9999 SCT030 PROB30 TEMPO 2021/2106 5000 SHRA

Weather observations and forecasts of more than 4000 airports (METAR and TAF reports).

The available stations are represented by yellow and red dots on the map.

Hover mouse over dot to see the name of the station.

Then click to see weather observations and forecasts.

To change the map : click on the green buttons with a black cross to zoom in, on the green button with a dash to zoom out, or on the green arrows for adjacent maps.


METAR-TAF: